Crude Centurion — V7TR8 — position and weather

sailwx.info

Track history (hours):
 
Tides and Currents Weather Stations Pressure Air Temp Water Temp Dewpoint Dewpoint Depression Visibility Wind Speed Wind Dir Waves Ship Positions

Crude Centurion

Last reported at 2018-Feb-21 09:30 UTC. Time now 2018-Feb-21 15:42 UTC.
Position N 37°27' E 023°48'.

Length 250 m; draft 8.1 m.

Type: Ship (hazmat cat C). MMSI: 538003868.

Date/timePositionNaut miles runAvg speedWind from/ knotsBaromVisibWave heightAir tempDewpointWater temp
2018-Feb-21 09:30N 37°27' E 023°48'714.3
2018-Feb-21 09:00N 37°34' E 023°45'714.4
2018-Feb-21 08:31N 37°41' E 023°41'713.7
2018-Feb-21 08:00N 37°47' E 023°38'611.7
2018-Feb-21 07:30N 37°50' E 023°31'612.0
2018-Feb-21 07:00N 37°52' E 023°24'5 9.2
2018-Feb-21 06:30N 37°56' E 023°23'2 3.6
2018-Feb-21 06:00N 37°58' E 023°23'0 0.0
2018-Feb-21 05:29N 37°58' E 023°23'0 0.0
2018-Feb-21 04:59N 37°58' E 023°23'0 0.0
2018-Feb-20 11:14N 37°58' E 023°23'0 0.0
2018-Feb-20 10:59N 37°58' E 023°23'0 0.0
2018-Feb-20 10:29N 37°58' E 023°23'0 0.0
2018-Feb-20 09:59N 37°58' E 023°23'0 0.0
2018-Feb-20 09:29N 37°58' E 023°23'0 0.0
2018-Feb-20 08:59N 37°58' E 023°23'0 0.0
2018-Feb-20 08:26N 37°58' E 023°23'0 0.0
2018-Feb-20 07:59N 37°58' E 023°23'0 0.0
2018-Feb-20 07:29N 37°58' E 023°23'0 0.0
2018-Feb-20 06:59N 37°58' E 023°23'0 0.0
2018-Feb-20 06:29N 37°58' E 023°23'0 0.0
2018-Feb-20 05:59N 37°58' E 023°23'0 0.0
2018-Feb-20 05:29N 37°58' E 023°23'0 0.0
2018-Feb-20 04:59N 37°58' E 023°23'0 0.0
2018-Feb-20 04:29N 37°58' E 023°23'0 0.0
2018-Feb-20 03:59N 37°58' E 023°23'0 0.0
2018-Feb-20 03:29N 37°58' E 023°23'0 0.0
2018-Feb-20 02:59N 37°58' E 023°23'0 0.0
2018-Feb-20 02:29N 37°58' E 023°23'0 0.0
2018-Feb-20 01:59N 37°58' E 023°23'0 0.0
2018-Feb-20 01:29N 37°58' E 023°23'0 0.0
2018-Feb-20 00:59N 37°58' E 023°23'0 0.0
2018-Feb-20 00:30N 37°58' E 023°23'0 0.0
2018-Feb-20 00:00N 37°58' E 023°23'0 0.0
2018-Feb-19 23:31N 37°58' E 023°23'0 0.6
2018-Feb-19 23:00N 37°58' E 023°23'1 2.3
2018-Feb-19 22:30N 37°57' E 023°23'1 2.6
2018-Feb-19 22:01N 37°56' E 023°23'2 3.4
2018-Feb-19 21:30N 37°54' E 023°22'4 8.8
2018-Feb-19 21:00N 37°51' E 023°27'510.8
2018-Feb-19 20:31N 37°50' E 023°34'5 9.8
2018-Feb-19 20:00N 37°50' E 023°40'510.9
2018-Feb-19 19:30N 37°45' E 023°43'510.8
2018-Feb-19 19:00N 37°40' E 023°45'510.7
2018-Feb-19 18:30N 37°35' E 023°45'510.9
2018-Feb-19 18:00N 37°29' E 023°45'610.6
2018-Feb-19 17:29N 37°23' E 023°44'510.6
2018-Feb-19 16:59N 37°19' E 023°41'3 0.5
2018-Feb-19 11:44N 37°16' E 023°41'0 1.1
2018-Feb-19 11:29N 37°16' E 023°41'1 1.1
2018-Feb-19 10:47N 37°17' E 023°42'1 0.5
2018-Feb-19 08:40N 37°18' E 023°42'1 7.1
2018-Feb-19 08:30N 37°17' E 023°41'2 0.1
2018-Feb-18 08:54N 37°16' E 023°40'9 6.8
2018-Feb-18 07:32N 37°09' E 023°32'2 7.9
2018-Feb-18 07:17N 37°08' E 023°30'3 7.7
2018-Feb-18 06:55N 37°07' E 023°27'5 8.1
2018-Feb-18 06:16N 37°05' E 023°21'2 7.6
2018-Feb-18 06:00N 37°04' E 023°18'1 2.0
2018-Feb-18 05:30N 37°03' E 023°17'0 0.4
2018-Feb-18 05:00N 37°04' E 023°17'1 0.4
2018-Feb-18 02:51N 37°04' E 023°18'0 0.4
2018-Feb-18 02:27N 37°04' E 023°19'0 0.3
2018-Feb-18 02:00N 37°04' E 023°19'0 0.3
2018-Feb-18 01:27N 37°04' E 023°19'1 0.4
2018-Feb-17 22:57N 37°04' E 023°20'3 0.7
2018-Feb-17 19:12N 37°05' E 023°23'0 1.0
2018-Feb-17 19:00N 37°05' E 023°23'2 1.0
2018-Feb-17 17:15N 37°06' E 023°25'0 1.1
2018-Feb-17 17:00N 37°06' E 023°25'1 1.1
2018-Feb-17 16:27N 37°06' E 023°26'1 1.2
2018-Feb-17 16:00N 37°07' E 023°26'1 1.2
2018-Feb-17 15:24N 37°07' E 023°27'2 1.0
2018-Feb-17 13:18N 37°09' E 023°29'0 1.6
2018-Feb-17 13:00N 37°09' E 023°29'0 0.5
2018-Feb-17 12:27N 37°09' E 023°29'3 0.9
2018-Feb-17 09:32N 37°11' E 023°32'0 7.7
2018-Feb-17 09:30N 37°10' E 023°32'4 6.3
2018-Feb-17 08:55N 37°07' E 023°30'2 0.7
2018-Feb-17 06:20N 37°08' E 023°31'0 1.2
2018-Feb-17 05:55N 37°08' E 023°31'3 5.5
2018-Feb-17 05:26N 37°06' E 023°29'4 2.9
2018-Feb-17 04:10N 37°03' E 023°26'0 1.1
2018-Feb-17 03:58N 37°03' E 023°26'1 1.3
2018-Feb-17 03:28N 37°04' E 023°26'1 1.4
2018-Feb-17 02:48N 37°04' E 023°27'2 6.4
2018-Feb-17 02:30N 37°03' E 023°27'3 0.8
2018-Feb-16 23:04N 37°05' E 023°28'0 1.4
2018-Feb-16 22:49N 37°06' E 023°28'1 1.5
2018-Feb-16 22:25N 37°06' E 023°29'1 1.5
2018-Feb-16 21:58N 37°07' E 023°29'4 1.3
2018-Feb-16 19:04N 37°10' E 023°32'9 1.5
2018-Feb-16 12:55N 37°16' E 023°40'1 1.3
2018-Feb-16 12:16N 37°17' E 023°41'0 1.3
2018-Feb-16 11:58N 37°17' E 023°41'5 1.6
2018-Feb-16 08:42N 37°22' E 023°43'2 9.6
2018-Feb-16 08:28N 37°25' E 023°43'611.3
2018-Feb-16 07:58N 37°30' E 023°43'510.5
2018-Feb-16 07:29N 37°35' E 023°43'4 8.5
2018-Feb-16 07:00N 37°39' E 023°43'4 8.5
2018-Feb-16 06:31N 37°43' E 023°40'4 8.5
2018-Feb-16 06:00N 37°47' E 023°38'4 8.1
2018-Feb-16 05:31N 37°50' E 023°34'2 4.3
2018-Feb-16 04:58N 37°51' E 023°32'0 0.2
2018-Feb-16 04:28N 37°51' E 023°32'0 0.0
2018-Feb-16 03:58N 37°51' E 023°32'0 0.1
2018-Feb-16 03:28N 37°51' E 023°32'0 0.0
2018-Feb-16 02:58N 37°51' E 023°32'0 0.0
2018-Feb-16 02:28N 37°51' E 023°32'0 0.0
2018-Feb-16 01:58N 37°51' E 023°32'0 0.0
2018-Feb-16 01:28N 37°51' E 023°32'0 0.0
2018-Feb-16 00:58N 37°51' E 023°32'0 0.0
2018-Feb-16 00:28N 37°51' E 023°32'0 0.0
2018-Feb-15 23:58N 37°51' E 023°32'0 0.1
2018-Feb-15 23:28N 37°51' E 023°32'0 0.5
2018-Feb-15 23:00N 37°51' E 023°32'1 1.5
2018-Feb-15 22:30N 37°50' E 023°32'1 1.8
2018-Feb-15 22:00N 37°50' E 023°31'2 4.1
2018-Feb-15 21:30N 37°50' E 023°29'3 6.3
2018-Feb-15 21:00N 37°51' E 023°25'3 5.5
2018-Feb-15 20:30N 37°53' E 023°22'3 6.8
2018-Feb-15 20:00N 37°56' E 023°23'1 2.0
2018-Feb-15 19:30N 37°57' E 023°23'0 0.1
2018-Feb-15 19:00N 37°57' E 023°23'0 0.0
2018-Feb-15 18:30N 37°57' E 023°23'0 0.1
2018-Feb-15 18:00N 37°57' E 023°23'0 0.0
2018-Feb-15 17:29N 37°57' E 023°23'0 0.2
2018-Feb-15 17:00N 37°57' E 023°23'0 0.1
2018-Feb-15 16:30N 37°57' E 023°23'0 0.1
2018-Feb-15 16:00N 37°57' E 023°23'0 0.0
2018-Feb-15 15:30N 37°57' E 023°23'0 0.1
2018-Feb-15 15:00N 37°57' E 023°23'0 0.1
2018-Feb-15 14:30N 37°57' E 023°23'0 0.1
2018-Feb-15 14:00N 37°57' E 023°23'0 0.0
2018-Feb-15 13:30N 37°57' E 023°23'0 0.1
2018-Feb-15 13:00N 37°57' E 023°23'0 0.1
2018-Feb-15 12:30N 37°57' E 023°23'0 0.1
2018-Feb-15 12:00N 37°57' E 023°23'0 0.1
2018-Feb-15 11:30N 37°57' E 023°23'0 0.1
2018-Feb-15 11:00N 37°57' E 023°23'0 0.0
2018-Feb-15 10:30N 37°57' E 023°23'0 0.2
2018-Feb-15 10:00N 37°57' E 023°23'0 0.4
2018-Feb-15 09:30N 37°57' E 023°23'0 0.3
2018-Feb-15 09:00N 37°57' E 023°23'0 0.1
2018-Feb-15 08:29N 37°57' E 023°23'0 0.0
2018-Feb-15 08:00N 37°57' E 023°23'0 0.2
2018-Feb-15 07:30N 37°57' E 023°23'0 0.2
2018-Feb-15 07:00N 37°57' E 023°23'0 0.1
2018-Feb-15 06:29N 37°57' E 023°23'0 0.0
2018-Feb-15 06:00N 37°57' E 023°23'0 0.0
2018-Feb-15 05:30N 37°57' E 023°23'0 0.1
2018-Feb-15 05:00N 37°57' E 023°23'0 0.0
2018-Feb-15 04:30N 37°57' E 023°23'0 0.3
2018-Feb-15 04:00N 37°57' E 023°23'0 0.3
2018-Feb-15 03:30N 37°57' E 023°23'0 0.0
2018-Feb-15 03:00N 37°57' E 023°23'0 0.1
2018-Feb-15 02:30N 37°57' E 023°23'0 0.0
2018-Feb-15 02:00N 37°57' E 023°23'0 0.1
2018-Feb-15 01:30N 37°57' E 023°23'0 0.0
2018-Feb-15 01:00N 37°57' E 023°23'0 0.1
2018-Feb-15 00:30N 37°57' E 023°23'0 0.1
2018-Feb-15 00:00N 37°57' E 023°23'0 0.0
2018-Feb-14 23:30N 37°57' E 023°23'0 0.1
2018-Feb-14 23:00N 37°57' E 023°23'1 1.2
2018-Feb-14 22:30N 37°57' E 023°23'1 2.2
2018-Feb-14 22:00N 37°55' E 023°23'0 0.3
2018-Feb-14 21:28N 37°56' E 023°23'0 0.1
2018-Feb-14 20:58N 37°56' E 023°23'0 0.1
2018-Feb-14 20:28N 37°56' E 023°23'0 0.2
2018-Feb-14 19:58N 37°56' E 023°23'0 0.2
2018-Feb-14 19:28N 37°56' E 023°23'0 0.1
2018-Feb-14 19:00N 37°56' E 023°23'1 1.4
2018-Feb-14 18:30N 37°55' E 023°22'1 1.7
2018-Feb-14 18:00N 37°55' E 023°21'0 0.4
2018-Feb-14 17:30N 37°55' E 023°21'3 6.2
2018-Feb-14 17:00N 37°52' E 023°24'5 8.7
2018-Feb-14 16:29N 37°51' E 023°29'510.2
2018-Feb-14 16:00N 37°51' E 023°35'5 9.6
2018-Feb-14 15:30N 37°49' E 023°41'611.0
2018-Feb-14 15:00N 37°44' E 023°44'611.1
2018-Feb-14 14:30N 37°38' E 023°46'611.1
2018-Feb-14 14:00N 37°33' E 023°47'  
Track history (hours):
 
Tides and Currents Weather Stations Pressure Air Temp Water Temp Dewpoint Dewpoint Depression Visibility Wind Speed Wind Dir Waves Ship Positions

Crude Centurion

Last reported at 2018-Feb-21 09:30 UTC. Time now 2018-Feb-21 15:42 UTC.
Position N 37°27' E 023°48'.

Length 250 m; draft 8.1 m.

Type: Ship (hazmat cat C). MMSI: 538003868.

Date/timePositionNaut miles runAvg speedWind from/ knotsBaromVisibWave heightAir tempDewpointWater temp
2018-Feb-21 09:30N 37°27' E 023°48'714.3
2018-Feb-21 09:00N 37°34' E 023°45'714.4
2018-Feb-21 08:31N 37°41' E 023°41'713.7
2018-Feb-21 08:00N 37°47' E 023°38'611.7
2018-Feb-21 07:30N 37°50' E 023°31'612.0
2018-Feb-21 07:00N 37°52' E 023°24'5 9.2
2018-Feb-21 06:30N 37°56' E 023°23'2 3.6
2018-Feb-21 06:00N 37°58' E 023°23'0 0.0
2018-Feb-21 05:29N 37°58' E 023°23'0 0.0
2018-Feb-21 04:59N 37°58' E 023°23'0 0.0
2018-Feb-20 11:14N 37°58' E 023°23'0 0.0
2018-Feb-20 10:59N 37°58' E 023°23'0 0.0
2018-Feb-20 10:29N 37°58' E 023°23'0 0.0
2018-Feb-20 09:59N 37°58' E 023°23'0 0.0
2018-Feb-20 09:29N 37°58' E 023°23'0 0.0
2018-Feb-20 08:59N 37°58' E 023°23'0 0.0
2018-Feb-20 08:26N 37°58' E 023°23'0 0.0
2018-Feb-20 07:59N 37°58' E 023°23'0 0.0
2018-Feb-20 07:29N 37°58' E 023°23'0 0.0
2018-Feb-20 06:59N 37°58' E 023°23'0 0.0
2018-Feb-20 06:29N 37°58' E 023°23'0 0.0
2018-Feb-20 05:59N 37°58' E 023°23'0 0.0
2018-Feb-20 05:29N 37°58' E 023°23'0 0.0
2018-Feb-20 04:59N 37°58' E 023°23'0 0.0
2018-Feb-20 04:29N 37°58' E 023°23'0 0.0
2018-Feb-20 03:59N 37°58' E 023°23'0 0.0
2018-Feb-20 03:29N 37°58' E 023°23'0 0.0
2018-Feb-20 02:59N 37°58' E 023°23'0 0.0
2018-Feb-20 02:29N 37°58' E 023°23'0 0.0
2018-Feb-20 01:59N 37°58' E 023°23'0 0.0
2018-Feb-20 01:29N 37°58' E 023°23'0 0.0
2018-Feb-20 00:59N 37°58' E 023°23'0 0.0
2018-Feb-20 00:30N 37°58' E 023°23'0 0.0
2018-Feb-20 00:00N 37°58' E 023°23'0 0.0
2018-Feb-19 23:31N 37°58' E 023°23'0 0.6
2018-Feb-19 23:00N 37°58' E 023°23'1 2.3
2018-Feb-19 22:30N 37°57' E 023°23'1 2.6
2018-Feb-19 22:01N 37°56' E 023°23'2 3.4
2018-Feb-19 21:30N 37°54' E 023°22'4 8.8
2018-Feb-19 21:00N 37°51' E 023°27'510.8
2018-Feb-19 20:31N 37°50' E 023°34'5 9.8
2018-Feb-19 20:00N 37°50' E 023°40'510.9
2018-Feb-19 19:30N 37°45' E 023°43'510.8
2018-Feb-19 19:00N 37°40' E 023°45'510.7
2018-Feb-19 18:30N 37°35' E 023°45'510.9
2018-Feb-19 18:00N 37°29' E 023°45'610.6
2018-Feb-19 17:29N 37°23' E 023°44'510.6
2018-Feb-19 16:59N 37°19' E 023°41'3 0.5
2018-Feb-19 11:44N 37°16' E 023°41'0 1.1
2018-Feb-19 11:29N 37°16' E 023°41'1 1.1
2018-Feb-19 10:47N 37°17' E 023°42'1 0.5
2018-Feb-19 08:40N 37°18' E 023°42'1 7.1
2018-Feb-19 08:30N 37°17' E 023°41'2 0.1
2018-Feb-18 08:54N 37°16' E 023°40'9 6.8
2018-Feb-18 07:32N 37°09' E 023°32'2 7.9
2018-Feb-18 07:17N 37°08' E 023°30'3 7.7
2018-Feb-18 06:55N 37°07' E 023°27'5 8.1
2018-Feb-18 06:16N 37°05' E 023°21'2 7.6
2018-Feb-18 06:00N 37°04' E 023°18'1 2.0
2018-Feb-18 05:30N 37°03' E 023°17'0 0.4
2018-Feb-18 05:00N 37°04' E 023°17'1 0.4
2018-Feb-18 02:51N 37°04' E 023°18'0 0.4
2018-Feb-18 02:27N 37°04' E 023°19'0 0.3
2018-Feb-18 02:00N 37°04' E 023°19'0 0.3
2018-Feb-18 01:27N 37°04' E 023°19'1 0.4
2018-Feb-17 22:57N 37°04' E 023°20'3 0.7
2018-Feb-17 19:12N 37°05' E 023°23'0 1.0
2018-Feb-17 19:00N 37°05' E 023°23'2 1.0
2018-Feb-17 17:15N 37°06' E 023°25'0 1.1
2018-Feb-17 17:00N 37°06' E 023°25'1 1.1
2018-Feb-17 16:27N 37°06' E 023°26'1 1.2
2018-Feb-17 16:00N 37°07' E 023°26'1 1.2
2018-Feb-17 15:24N 37°07' E 023°27'2 1.0
2018-Feb-17 13:18N 37°09' E 023°29'0 1.6
2018-Feb-17 13:00N 37°09' E 023°29'0 0.5
2018-Feb-17 12:27N 37°09' E 023°29'3 0.9
2018-Feb-17 09:32N 37°11' E 023°32'0 7.7
2018-Feb-17 09:30N 37°10' E 023°32'4 6.3
2018-Feb-17 08:55N 37°07' E 023°30'2 0.7
2018-Feb-17 06:20N 37°08' E 023°31'0 1.2
2018-Feb-17 05:55N 37°08' E 023°31'3 5.5
2018-Feb-17 05:26N 37°06' E 023°29'4 2.9
2018-Feb-17 04:10N 37°03' E 023°26'0 1.1
2018-Feb-17 03:58N 37°03' E 023°26'1 1.3
2018-Feb-17 03:28N 37°04' E 023°26'1 1.4
2018-Feb-17 02:48N 37°04' E 023°27'2 6.4
2018-Feb-17 02:30N 37°03' E 023°27'3 0.8
2018-Feb-16 23:04N 37°05' E 023°28'0 1.4
2018-Feb-16 22:49N 37°06' E 023°28'1 1.5
2018-Feb-16 22:25N 37°06' E 023°29'1 1.5
2018-Feb-16 21:58N 37°07' E 023°29'4 1.3
2018-Feb-16 19:04N 37°10' E 023°32'9 1.5
2018-Feb-16 12:55N 37°16' E 023°40'1 1.3
2018-Feb-16 12:16N 37°17' E 023°41'0 1.3
2018-Feb-16 11:58N 37°17' E 023°41'5 1.6
2018-Feb-16 08:42N 37°22' E 023°43'2 9.6
2018-Feb-16 08:28N 37°25' E 023°43'611.3
2018-Feb-16 07:58N 37°30' E 023°43'510.5
2018-Feb-16 07:29N 37°35' E 023°43'4 8.5
2018-Feb-16 07:00N 37°39' E 023°43'4 8.5
2018-Feb-16 06:31N 37°43' E 023°40'4 8.5
2018-Feb-16 06:00N 37°47' E 023°38'4 8.1
2018-Feb-16 05:31N 37°50' E 023°34'2 4.3
2018-Feb-16 04:58N 37°51' E 023°32'0 0.2
2018-Feb-16 04:28N 37°51' E 023°32'0 0.0
2018-Feb-16 03:58N 37°51' E 023°32'0 0.1
2018-Feb-16 03:28N 37°51' E 023°32'0 0.0
2018-Feb-16 02:58N 37°51' E 023°32'0 0.0
2018-Feb-16 02:28N 37°51' E 023°32'0 0.0
2018-Feb-16 01:58N 37°51' E 023°32'0 0.0
2018-Feb-16 01:28N 37°51' E 023°32'0 0.0
2018-Feb-16 00:58N 37°51' E 023°32'0 0.0
2018-Feb-16 00:28N 37°51' E 023°32'0 0.0
2018-Feb-15 23:58N 37°51' E 023°32'0 0.1
2018-Feb-15 23:28N 37°51' E 023°32'0 0.5
2018-Feb-15 23:00N 37°51' E 023°32'1 1.5
2018-Feb-15 22:30N 37°50' E 023°32'1 1.8
2018-Feb-15 22:00N 37°50' E 023°31'2 4.1
2018-Feb-15 21:30N 37°50' E 023°29'3 6.3
2018-Feb-15 21:00N 37°51' E 023°25'3 5.5
2018-Feb-15 20:30N 37°53' E 023°22'3 6.8
2018-Feb-15 20:00N 37°56' E 023°23'1 2.0
2018-Feb-15 19:30N 37°57' E 023°23'0 0.1
2018-Feb-15 19:00N 37°57' E 023°23'0 0.0
2018-Feb-15 18:30N 37°57' E 023°23'0 0.1
2018-Feb-15 18:00N 37°57' E 023°23'0 0.0
2018-Feb-15 17:29N 37°57' E 023°23'0 0.2
2018-Feb-15 17:00N 37°57' E 023°23'0 0.1
2018-Feb-15 16:30N 37°57' E 023°23'0 0.1
2018-Feb-15 16:00N 37°57' E 023°23'0 0.0
2018-Feb-15 15:30N 37°57' E 023°23'0 0.1
2018-Feb-15 15:00N 37°57' E 023°23'0 0.1
2018-Feb-15 14:30N 37°57' E 023°23'0 0.1
2018-Feb-15 14:00N 37°57' E 023°23'0 0.0
2018-Feb-15 13:30N 37°57' E 023°23'0 0.1
2018-Feb-15 13:00N 37°57' E 023°23'0 0.1
2018-Feb-15 12:30N 37°57' E 023°23'0 0.1
2018-Feb-15 12:00N 37°57' E 023°23'0 0.1
2018-Feb-15 11:30N 37°57' E 023°23'0 0.1
2018-Feb-15 11:00N 37°57' E 023°23'0 0.0
2018-Feb-15 10:30N 37°57' E 023°23'0 0.2
2018-Feb-15 10:00N 37°57' E 023°23'0 0.4
2018-Feb-15 09:30N 37°57' E 023°23'0 0.3
2018-Feb-15 09:00N 37°57' E 023°23'0 0.1
2018-Feb-15 08:29N 37°57' E 023°23'0 0.0
2018-Feb-15 08:00N 37°57' E 023°23'0 0.2
2018-Feb-15 07:30N 37°57' E 023°23'0 0.2
2018-Feb-15 07:00N 37°57' E 023°23'0 0.1
2018-Feb-15 06:29N 37°57' E 023°23'0 0.0
2018-Feb-15 06:00N 37°57' E 023°23'0 0.0
2018-Feb-15 05:30N 37°57' E 023°23'0 0.1
2018-Feb-15 05:00N 37°57' E 023°23'0 0.0
2018-Feb-15 04:30N 37°57' E 023°23'0 0.3
2018-Feb-15 04:00N 37°57' E 023°23'0 0.3
2018-Feb-15 03:30N 37°57' E 023°23'0 0.0
2018-Feb-15 03:00N 37°57' E 023°23'0 0.1
2018-Feb-15 02:30N 37°57' E 023°23'0 0.0
2018-Feb-15 02:00N 37°57' E 023°23'0 0.1
2018-Feb-15 01:30N 37°57' E 023°23'0 0.0
2018-Feb-15 01:00N 37°57' E 023°23'0 0.1
2018-Feb-15 00:30N 37°57' E 023°23'0 0.1
2018-Feb-15 00:00N 37°57' E 023°23'0 0.0
2018-Feb-14 23:30N 37°57' E 023°23'0 0.1
2018-Feb-14 23:00N 37°57' E 023°23'1 1.2
2018-Feb-14 22:30N 37°57' E 023°23'1 2.2
2018-Feb-14 22:00N 37°55' E 023°23'0 0.3
2018-Feb-14 21:28N 37°56' E 023°23'0 0.1
2018-Feb-14 20:58N 37°56' E 023°23'0 0.1
2018-Feb-14 20:28N 37°56' E 023°23'0 0.2
2018-Feb-14 19:58N 37°56' E 023°23'0 0.2
2018-Feb-14 19:28N 37°56' E 023°23'0 0.1
2018-Feb-14 19:00N 37°56' E 023°23'1 1.4
2018-Feb-14 18:30N 37°55' E 023°22'1 1.7
2018-Feb-14 18:00N 37°55' E 023°21'0 0.4
2018-Feb-14 17:30N 37°55' E 023°21'3 6.2
2018-Feb-14 17:00N 37°52' E 023°24'5 8.7
2018-Feb-14 16:29N 37°51' E 023°29'510.2
2018-Feb-14 16:00N 37°51' E 023°35'5 9.6
2018-Feb-14 15:30N 37°49' E 023°41'611.0
2018-Feb-14 15:00N 37°44' E 023°44'611.1
2018-Feb-14 14:30N 37°38' E 023°46'611.1
2018-Feb-14 14:00N 37°33' E 023°47'  

Dump ship's entire track history